Etusivu
METAR-TAF:

METAR-TAF

Lentoasemat :

Cody, Wyoming, Yhdysvallat

Leveyspiiri: 44-31N, Pituuspiiri: 109-01W, korkeus merenpinnasta: 1551 m

Tämänhetkinen sää

Tämä raportti tehtiin 27 minuuttia sitten, kello 02.56 UTC
Tuuli 4 kn lounaasta
Lämpötila 10°C
Kosteus 46%
Ilmanpaine 1022 hPa
Näkyvyys: 16.1 km
selkeää

METAR: KCOD 210256Z AUTO 22004KT 10SM CLR 10/M01 A3018 RMK AO2 SLP215 T01001011 50000

Aika: 21:23 (03:23 UTC)

Sääennuste

Tämä raportti tehtiin 3 tuntia ja 57 minuuttia sitten, kello 23.26 UTC
Ennuste voimassa 21. päivästä klo 00 UTC - 21. päivään klo 24 UTC
Tuuli 10 kn kaakosta
Näkyvyys: 10 km
selkeää
From 21. päivästä klo 0200 UTC
Tuuli 6 kn etelästä/lounaasta
Näkyvyys: 10 km
selkeää
From 21. päivästä klo 1800 UTC
Tuuli 7 kn koillisesta
Näkyvyys: 10 km
selkeää

TAF: KCOD 202326Z 2100/2124 13010KT P6SM SKC FM210200 21006KT P6SM SKC FM211800 05007KT P6SM SKC AMD LTD TO CLD VIS AND WIND

Säähavainnot ja -ennusteet yli 4000 lentoasemalta (METAR- ja TAF-raportit).

Käytössä olevat sääasemat on merkitty karttaan keltaisilla ja punaisilla pisteillä.

Aseta hiiri pisteen päälle nähdäksesi sääaseman nimen.

Klikkaa sitten nähdäksesi säähavainnot ja -ennusteet.

Kartan vaihtaminen: klikkaa mustalla rastilla varustettuja vihreitä pisteitä, niin voit zoomata sisään; viivalla varustettua vihreää pistettä, niin voit zoomata ulos tai vihreitä nuolia, niin pääset viereisille kartoille.


METAR-TAF: